Time;durP1;ratioP1;P1;durP2;ratioP2;P2;SDS_P1;SDS_P2;PMS_P1;PMS_P2;Temp;Humidity;BMP_temperature;BMP_pressure;BME280_temperature;BME280_humidity;BME280_pressure;Samples;Min_cycle;Max_cycle;Signal;HPM_P1;HPM_P2
2023/11/13 00:00:07;;;;;;;0.10;0.10;;;;;;;;;;4865682;29;20048;-89
2023/11/13 00:02:33;;;;;;;0.10;0.10;;;;;;;;;;4881399;29;20049;-89
2023/11/13 00:04:59;;;;;;;0.10;0.10;;;;;;;;;;4865682;29;20059;-89
2023/11/13 00:07:25;;;;;;;0.10;0.10;;;;;;;;;;4881336;29;20048;-89
2023/11/13 00:09:51;;;;;;;0.10;0.10;;;;;;;;;;4881004;29;20389;-89
2023/11/13 00:12:17;;;;;;;0.10;0.10;;;;;;;;;;4865678;29;20063;-89
2023/11/13 00:14:43;;;;;;;0.10;0.10;;;;;;;;;;4880951;29;20045;-89
2023/11/13 00:17:09;;;;;;;0.10;0.10;;;;;;;;;;4880950;29;20092;-89
2023/11/13 00:19:37;;;;;;;0.10;0.10;;;;;;;;;;4865422;29;20040;-90
2023/11/13 00:22:04;;;;;;;0.10;0.10;;;;;;;;;;4865783;29;20044;-89
2023/11/13 00:24:30;;;;;;;0.10;0.10;;;;;;;;;;4880884;29;20131;-90
2023/11/13 00:26:55;;;;;;;0.10;0.10;;;;;;;;;;4880730;29;20124;-89
2023/11/13 00:29:21;;;;;;;0.10;0.10;;;;;;;;;;4865122;29;20044;-89
2023/11/13 00:31:47;;;;;;;0.10;0.10;;;;;;;;;;4865637;29;20124;-89
2023/11/13 00:34:13;;;;;;;0.10;0.10;;;;;;;;;;4880806;29;20412;-89
2023/11/13 00:36:39;;;;;;;0.10;0.10;;;;;;;;;;4865167;29;20043;-89
2023/11/13 00:39:10;;;;;;;0.10;0.10;;;;;;;;;;4880636;29;20559;-89
2023/11/13 00:41:37;;;;;;;0.10;0.10;;;;;;;;;;4865647;29;20036;-89
2023/11/13 00:44:03;;;;;;;0.10;0.10;;;;;;;;;;4865588;29;20041;-89
2023/11/13 00:46:29;;;;;;;0.10;0.10;;;;;;;;;;4865289;29;20092;-89
2023/11/13 00:48:55;;;;;;;0.10;0.10;;;;;;;;;;4880788;29;20052;-89
2023/11/13 00:51:22;;;;;;;0.15;0.15;;;;;;;;;;4880327;29;20135;-89
2023/11/13 00:53:48;;;;;;;0.10;0.10;;;;;;;;;;4880749;29;20049;-89
2023/11/13 00:56:14;;;;;;;0.10;0.10;;;;;;;;;;4880673;29;20085;-89
2023/11/13 00:58:40;;;;;;;0.10;0.10;;;;;;;;;;4880468;29;20059;-89
2023/11/13 01:01:07;;;;;;;0.10;0.10;;;;;;;;;;4864875;29;20044;-89
2023/11/13 01:03:33;;;;;;;0.10;0.10;;;;;;;;;;4880645;29;20048;-89
2023/11/13 01:05:59;;;;;;;0.10;0.10;;;;;;;;;;4880619;29;20132;-88
2023/11/13 01:08:25;;;;;;;0.10;0.10;;;;;;;;;;4864941;29;20393;-89
2023/11/13 01:10:52;;;;;;;0.30;0.30;;;;;;;;;;4883802;29;20056;-89
2023/11/13 01:13:19;;;;;;;0.10;0.10;;;;;;;;;;4899358;29;20432;-89
2023/11/13 01:15:45;;;;;;;0.10;0.10;;;;;;;;;;4898961;29;20511;-89
2023/11/13 01:18:11;;;;;;;0.10;0.10;;;;;;;;;;4898927;29;20499;-89
2023/11/13 01:20:37;;;;;;;0.10;0.10;;;;;;;;;;4898790;29;20040;-89
2023/11/13 01:23:03;;;;;;;0.10;0.10;;;;;;;;;;4899006;29;20055;-89
2023/11/13 01:25:29;;;;;;;0.10;0.10;;;;;;;;;;4898745;29;20047;-89
2023/11/13 01:27:55;;;;;;;0.10;0.10;;;;;;;;;;4898985;29;20040;-88
2023/11/13 01:30:21;;;;;;;0.10;0.10;;;;;;;;;;4883145;29;20099;-89
2023/11/13 01:32:46;;;;;;;0.73;0.73;;;;;;;;;;4898800;29;20524;-88
2023/11/13 01:35:12;;;;;;;0.10;0.10;;;;;;;;;;4883278;29;20044;-89
2023/11/13 01:37:38;;;;;;;0.10;0.10;;;;;;;;;;4898599;29;20131;-89
2023/11/13 01:40:06;;;;;;;0.10;0.10;;;;;;;;;;4898589;29;20040;-89
2023/11/13 01:42:32;;;;;;;0.10;0.10;;;;;;;;;;4883267;29;20078;-89
2023/11/13 01:45:02;;;;;;;0.10;0.10;;;;;;;;;;4899091;29;20084;-90
2023/11/13 01:47:28;;;;;;;0.10;0.10;;;;;;;;;;4898660;29;20040;-88
2023/11/13 01:49:54;;;;;;;0.10;0.10;;;;;;;;;;4883288;29;20040;-89
2023/11/13 01:52:20;;;;;;;0.10;0.10;;;;;;;;;;4884440;29;20121;-89
2023/11/13 01:54:46;;;;;;;0.10;0.10;;;;;;;;;;4886534;29;20095;-89
2023/11/13 01:57:12;;;;;;;0.10;0.10;;;;;;;;;;4902247;29;20044;-90
2023/11/13 01:59:38;;;;;;;0.10;0.10;;;;;;;;;;4901880;29;20055;-89
2023/11/13 02:02:05;;;;;;;0.10;0.10;;;;;;;;;;4902006;29;20203;-89
2023/11/13 02:04:30;;;;;;;0.10;0.10;;;;;;;;;;4886311;29;20048;-89
2023/11/13 02:06:57;;;;;;;0.10;0.10;;;;;;;;;;4902218;29;20058;-89
2023/11/13 02:09:25;;;;;;;0.10;0.10;;;;;;;;;;4901876;29;20040;-89
2023/11/13 02:11:51;;;;;;;0.10;0.10;;;;;;;;;;4886268;29;20095;-89
2023/11/13 02:14:17;;;;;;;0.10;0.10;;;;;;;;;;4901581;29;20439;-88
2023/11/13 02:16:43;;;;;;;0.10;0.10;;;;;;;;;;4901667;29;20036;-88
2023/11/13 02:19:09;;;;;;;0.10;0.10;;;;;;;;;;4901523;29;20404;-88
2023/11/13 02:21:35;;;;;;;0.10;0.10;;;;;;;;;;4901527;29;20044;-88
2023/11/13 02:24:01;;;;;;;0.10;0.10;;;;;;;;;;4901773;29;20044;-88
2023/11/13 02:26:27;;;;;;;0.10;0.10;;;;;;;;;;4901357;29;20499;-88
2023/11/13 02:28:53;;;;;;;0.10;0.10;;;;;;;;;;4901451;29;20099;-88
2023/11/13 02:31:19;;;;;;;0.30;0.30;;;;;;;;;;4901278;29;20067;-88
2023/11/13 02:33:45;;;;;;;0.10;0.10;;;;;;;;;;4885706;29;20088;-87
2023/11/13 02:36:11;;;;;;;0.10;0.10;;;;;;;;;;4901258;29;20048;-88
2023/11/13 02:38:37;;;;;;;0.10;0.10;;;;;;;;;;4901385;29;20048;-89
2023/11/13 02:41:03;;;;;;;0.10;0.10;;;;;;;;;;4901170;29;20377;-89
2023/11/13 02:43:29;;;;;;;0.10;0.10;;;;;;;;;;4885559;29;20040;-90
2023/11/13 02:45:55;;;;;;;0.10;0.10;;;;;;;;;;4901503;29;20044;-89
2023/11/13 02:48:21;;;;;;;0.10;0.10;;;;;;;;;;4885597;29;20074;-90
2023/11/13 02:50:48;;;;;;;0.10;0.10;;;;;;;;;;4900718;29;20483;-89
2023/11/13 02:53:14;;;;;;;0.10;0.10;;;;;;;;;;4901110;29;20564;-89
2023/11/13 02:55:40;;;;;;;0.10;0.10;;;;;;;;;;4901163;29;20127;-89
2023/11/13 02:58:06;;;;;;;0.10;0.10;;;;;;;;;;4901047;29;20158;-88
2023/11/13 03:00:33;;;;;;;0.10;0.10;;;;;;;;;;4885351;29;20080;-88
2023/11/13 03:02:59;;;;;;;0.15;0.15;;;;;;;;;;4900361;29;20551;-90
2023/11/13 03:05:25;;;;;;;0.10;0.10;;;;;;;;;;4900543;29;20040;-88
2023/11/13 03:07:51;;;;;;;0.10;0.10;;;;;;;;;;4885301;29;20048;-89
2023/11/13 03:10:17;;;;;;;0.20;0.20;;;;;;;;;;4900801;29;20115;-89
2023/11/13 03:12:43;;;;;;;0.10;0.10;;;;;;;;;;4900507;29;20119;-89
2023/11/13 03:15:09;;;;;;;0.10;0.10;;;;;;;;;;4885545;29;20048;-88
2023/11/13 03:17:35;;;;;;;0.10;0.10;;;;;;;;;;4885040;29;20044;-89
2023/11/13 03:20:03;;;;;;;0.10;0.10;;;;;;;;;;4900486;29;20487;-88
2023/11/13 03:22:29;;;;;;;0.10;0.10;;;;;;;;;;4900767;29;20400;-89
2023/11/13 03:24:55;;;;;;;0.20;0.20;;;;;;;;;;4900716;29;20032;-88
2023/11/13 03:27:21;;;;;;;0.17;0.17;;;;;;;;;;4900744;29;20076;-90
2023/11/13 03:29:47;;;;;;;0.10;0.10;;;;;;;;;;4900754;29;20044;-90
2023/11/13 03:32:13;;;;;;;0.40;0.40;;;;;;;;;;4900589;29;20039;-89
2023/11/13 03:34:40;;;;;;;0.10;0.10;;;;;;;;;;4884978;29;20131;-89
2023/11/13 03:37:06;;;;;;;0.10;0.10;;;;;;;;;;4900239;29;20047;-90
2023/11/13 03:39:32;;;;;;;0.10;0.10;;;;;;;;;;4884604;29;20044;-90
2023/11/13 03:41:58;;;;;;;0.20;0.20;;;;;;;;;;4884971;29;20394;-90
2023/11/13 03:44:24;;;;;;;0.10;0.10;;;;;;;;;;4900352;29;20222;-89
2023/11/13 03:46:51;;;;;;;0.10;0.10;;;;;;;;;;4900503;29;20168;-90
2023/11/13 03:49:17;;;;;;;0.10;0.10;;;;;;;;;;4900073;29;20052;-89
2023/11/13 03:51:43;;;;;;;0.63;0.40;;;;;;;;;;4900328;29;20047;-90
2023/11/13 03:54:09;;;;;;;0.10;0.10;;;;;;;;;;4900189;29;20428;-90
2023/11/13 03:56:35;;;;;;;0.10;0.10;;;;;;;;;;4884612;29;20044;-90
2023/11/13 03:59:01;;;;;;;0.10;0.10;;;;;;;;;;4884611;29;20079;-89
2023/11/13 04:01:27;;;;;;;0.10;0.10;;;;;;;;;;4884593;29;20040;-90
2023/11/13 04:03:53;;;;;;;0.30;0.30;;;;;;;;;;4899787;29;20040;-89
2023/11/13 04:06:19;;;;;;;0.10;0.10;;;;;;;;;;4884678;29;20043;-89
2023/11/13 04:08:45;;;;;;;0.10;0.10;;;;;;;;;;4884414;29;20421;-89
2023/11/13 04:11:11;;;;;;;0.10;0.10;;;;;;;;;;4899529;29;20071;-90
2023/11/13 04:13:37;;;;;;;0.10;0.10;;;;;;;;;;4884429;29;20056;-89
2023/11/13 04:16:04;;;;;;;0.10;0.10;;;;;;;;;;4884076;29;20083;-89
2023/11/13 04:18:33;;;;;;;0.10;0.10;;;;;;;;;;4884189;29;20055;-88
2023/11/13 04:20:59;;;;;;;0.10;0.10;;;;;;;;;;4899992;29;20079;-89
2023/11/13 04:23:25;;;;;;;0.20;0.20;;;;;;;;;;4899655;29;20559;-89
2023/11/13 04:25:51;;;;;;;0.22;0.22;;;;;;;;;;4899702;29;20040;-89
2023/11/13 04:28:20;;;;;;;0.10;0.10;;;;;;;;;;4899880;29;20171;-89
2023/11/13 04:30:46;;;;;;;0.20;0.20;;;;;;;;;;4899594;29;20182;-89
2023/11/13 04:33:12;;;;;;;0.10;0.10;;;;;;;;;;4883990;29;20130;-89
2023/11/13 04:35:39;;;;;;;0.10;0.10;;;;;;;;;;4899741;29;20373;-86
2023/11/13 04:38:05;;;;;;;0.10;0.10;;;;;;;;;;4884026;29;20040;-90
2023/11/13 04:40:31;;;;;;;0.10;0.10;;;;;;;;;;4899636;29;20595;-89
2023/11/13 04:42:59;;;;;;;0.10;0.10;;;;;;;;;;4883940;29;20044;-89
2023/11/13 04:45:26;;;;;;;0.10;0.10;;;;;;;;;;4883567;29;20096;-88
2023/11/13 04:47:52;;;;;;;0.40;0.40;;;;;;;;;;4883486;29;20051;-88
2023/11/13 04:50:18;;;;;;;0.10;0.10;;;;;;;;;;4899165;29;20492;-89
2023/11/13 04:52:44;;;;;;;0.10;0.10;;;;;;;;;;4899148;29;20040;-88
2023/11/13 04:55:10;;;;;;;0.20;0.20;;;;;;;;;;4899144;29;20051;-88
2023/11/13 04:57:36;;;;;;;0.10;0.10;;;;;;;;;;4883938;29;20048;-88
2023/11/13 05:00:06;;;;;;;0.10;0.10;;;;;;;;;;4883652;29;20063;-89
2023/11/13 05:02:36;;;;;;;0.20;0.20;;;;;;;;;;4899309;29;20091;-88
2023/11/13 05:05:03;;;;;;;0.10;0.10;;;;;;;;;;4899143;29;20127;-88
2023/11/13 05:07:29;;;;;;;0.10;0.10;;;;;;;;;;4899594;29;20059;-90
2023/11/13 05:09:55;;;;;;;0.10;0.10;;;;;;;;;;4899003;29;20047;-89
2023/11/13 05:12:21;;;;;;;0.20;0.20;;;;;;;;;;4899119;29;20059;-89
2023/11/13 05:14:48;;;;;;;1.00;0.30;;;;;;;;;;4883696;29;20040;-89
2023/11/13 05:17:14;;;;;;;0.10;0.10;;;;;;;;;;4899194;29;20091;-89
2023/11/13 05:19:40;;;;;;;0.10;0.10;;;;;;;;;;4899225;29;20036;-89
2023/11/13 05:22:06;;;;;;;0.10;0.10;;;;;;;;;;4899227;29;20567;-89
2023/11/13 05:24:32;;;;;;;0.20;0.20;;;;;;;;;;4883479;29;20044;-88
2023/11/13 05:26:58;;;;;;;0.30;0.30;;;;;;;;;;4899924;29;20047;-89
2023/11/13 05:29:26;;;;;;;0.15;0.15;;;;;;;;;;4886673;29;20502;-90
2023/11/13 05:35:12;;;;;;;0.28;0.28;;;;;;;;;;4900430;29;20053;-89
2023/11/13 05:37:38;;;;;;;0.13;0.13;;;;;;;;;;4868460;29;20048;-90
2023/11/13 05:40:05;;;;;;;0.10;0.10;;;;;;;;;;4853164;29;20040;-90
2023/11/13 05:42:31;;;;;;;0.10;0.10;;;;;;;;;;4853397;29;20404;-89
2023/11/13 05:44:57;;;;;;;0.10;0.10;;;;;;;;;;4852981;29;20044;-89
2023/11/13 05:47:23;;;;;;;0.13;0.13;;;;;;;;;;4868163;29;20123;-88
2023/11/13 05:49:49;;;;;;;0.10;0.10;;;;;;;;;;4868097;29;20037;-89
2023/11/13 05:52:17;;;;;;;0.20;0.20;;;;;;;;;;4868386;29;20408;-90
2023/11/13 05:54:44;;;;;;;0.10;0.10;;;;;;;;;;4868146;29;20560;-89
2023/11/13 05:57:10;;;;;;;0.10;0.10;;;;;;;;;;4868363;29;20127;-88
2023/11/13 05:59:36;;;;;;;0.20;0.20;;;;;;;;;;4867910;29;20519;-89
2023/11/13 06:02:02;;;;;;;0.10;0.10;;;;;;;;;;4867912;29;20076;-87
2023/11/13 06:04:28;;;;;;;0.10;0.10;;;;;;;;;;4852538;29;20044;-88
2023/11/13 06:06:54;;;;;;;0.10;0.10;;;;;;;;;;4852421;29;20091;-88
2023/11/13 06:09:21;;;;;;;0.10;0.10;;;;;;;;;;4852998;29;20052;-88
2023/11/13 06:11:47;;;;;;;0.10;0.10;;;;;;;;;;4852436;29;20045;-88
2023/11/13 06:14:13;;;;;;;0.10;0.10;;;;;;;;;;4852453;29;20144;-88
2023/11/13 06:16:39;;;;;;;0.10;0.10;;;;;;;;;;4852273;29;20122;-87
2023/11/13 06:19:08;;;;;;;0.43;0.43;;;;;;;;;;4867554;29;20534;-88
2023/11/13 06:21:34;;;;;;;0.10;0.10;;;;;;;;;;4852297;29;20047;-89
2023/11/13 06:24:00;;;;;;;0.17;0.17;;;;;;;;;;4867632;29;20332;-88
2023/11/13 06:26:26;;;;;;;0.10;0.10;;;;;;;;;;4852300;29;20045;-90
2023/11/13 06:28:52;;;;;;;0.55;0.55;;;;;;;;;;4867771;29;20041;-89
2023/11/13 06:31:21;;;;;;;0.82;0.82;;;;;;;;;;4867456;29;20045;-89
2023/11/13 06:33:47;;;;;;;0.10;0.10;;;;;;;;;;4867029;29;20065;-89
2023/11/13 06:36:14;;;;;;;0.10;0.10;;;;;;;;;;4852519;29;20052;-89
2023/11/13 06:38:40;;;;;;;0.20;0.20;;;;;;;;;;4852065;29;20467;-87
2023/11/13 06:41:07;;;;;;;0.10;0.10;;;;;;;;;;4867183;29;20127;-88
2023/11/13 06:43:33;;;;;;;0.10;0.10;;;;;;;;;;4851762;29;20072;-89
2023/11/13 06:45:59;;;;;;;0.30;0.30;;;;;;;;;;4851906;29;20037;-87
2023/11/13 06:48:25;;;;;;;0.20;0.20;;;;;;;;;;4851868;29;20063;-88
2023/11/13 06:50:51;;;;;;;0.10;0.10;;;;;;;;;;4867141;29;20080;-89
2023/11/13 06:53:17;;;;;;;0.10;0.10;;;;;;;;;;4851518;29;20083;-88
2023/11/13 06:55:43;;;;;;;0.10;0.10;;;;;;;;;;4851408;29;20457;-88
2023/11/13 06:58:10;;;;;;;0.10;0.10;;;;;;;;;;4866755;29;20067;-88
2023/11/13 07:00:37;;;;;;;0.10;0.10;;;;;;;;;;4851679;29;20080;-88
2023/11/13 07:03:03;;;;;;;0.10;0.10;;;;;;;;;;4850992;29;20045;-88
2023/11/13 07:05:30;;;;;;;0.10;0.10;;;;;;;;;;4851204;29;20044;-88
2023/11/13 07:07:56;;;;;;;0.20;0.20;;;;;;;;;;4866987;29;20404;-90
2023/11/13 07:10:26;;;;;;;0.10;0.10;;;;;;;;;;4867187;29;20096;-89
2023/11/13 07:12:52;;;;;;;0.15;0.15;;;;;;;;;;4882346;29;20048;-92
2023/11/13 07:15:19;;;;;;;0.10;0.10;;;;;;;;;;4866932;29;20054;-91
2023/11/13 07:17:45;;;;;;;0.22;0.22;;;;;;;;;;4867326;29;20052;-89
2023/11/13 07:20:15;;;;;;;0.10;0.10;;;;;;;;;;4883132;29;20068;-89
2023/11/13 07:22:42;;;;;;;0.10;0.10;;;;;;;;;;4852297;29;20040;-90
2023/11/13 07:25:08;;;;;;;0.10;0.10;;;;;;;;;;4866756;29;20400;-89
2023/11/13 07:27:34;;;;;;;0.10;0.10;;;;;;;;;;4866386;29;20048;-90
2023/11/13 07:30:01;;;;;;;0.10;0.10;;;;;;;;;;4866117;29;20052;-89
2023/11/13 07:32:27;;;;;;;0.10;0.10;;;;;;;;;;4851222;29;20055;-91
2023/11/13 07:34:53;;;;;;;0.10;0.10;;;;;;;;;;4866417;29;20064;-88
2023/11/13 07:37:20;;;;;;;0.20;0.20;;;;;;;;;;4850631;29;20396;-91
2023/11/13 07:39:51;;;;;;;0.20;0.20;;;;;;;;;;4850843;29;20045;-90
2023/11/13 07:42:17;;;;;;;0.10;0.10;;;;;;;;;;4850707;29;20052;-89
2023/11/13 07:44:49;;;;;;;0.10;0.10;;;;;;;;;;4850936;29;20045;-90
2023/11/13 07:47:15;;;;;;;0.28;0.28;;;;;;;;;;4866412;29;20045;-90
2023/11/13 07:49:43;;;;;;;0.38;0.38;;;;;;;;;;4863224;29;20048;-88
2023/11/13 07:52:10;;;;;;;0.10;0.10;;;;;;;;;;4865703;29;20127;-89
2023/11/13 07:54:36;;;;;;;0.20;0.20;;;;;;;;;;4880870;29;20111;-89
2023/11/13 07:57:04;;;;;;;0.32;0.32;;;;;;;;;;4865697;29;20523;-89
2023/11/13 07:59:30;;;;;;;0.20;0.20;;;;;;;;;;4865164;29;20083;-89
2023/11/13 08:01:56;;;;;;;0.10;0.10;;;;;;;;;;4865365;29;20052;-89
2023/11/13 08:04:23;;;;;;;0.50;0.28;;;;;;;;;;4865520;29;20043;-89
2023/11/13 08:06:49;;;;;;;0.30;0.30;;;;;;;;;;4865577;29;20496;-89
2023/11/13 08:09:15;;;;;;;0.10;0.10;;;;;;;;;;4865177;29;20044;-90
2023/11/13 08:11:42;;;;;;;0.50;0.50;;;;;;;;;;4869120;29;20131;-90
2023/11/13 08:14:09;;;;;;;0.15;0.15;;;;;;;;;;4866024;29;20045;-88
2023/11/13 08:16:35;;;;;;;0.10;0.10;;;;;;;;;;4865219;29;20052;-88
2023/11/13 08:19:01;;;;;;;0.15;0.15;;;;;;;;;;4882729;29;20488;-89
2023/11/13 08:21:30;;;;;;;0.20;0.20;;;;;;;;;;4866549;29;20056;-88
2023/11/13 08:23:56;;;;;;;0.20;0.20;;;;;;;;;;4865450;29;20052;-88
2023/11/13 08:26:28;;;;;;;0.30;0.30;;;;;;;;;;4880302;29;20045;-88
2023/11/13 08:28:54;;;;;;;0.25;0.25;;;;;;;;;;4865885;29;20098;-88
2023/11/13 08:31:26;;;;;;;0.40;0.40;;;;;;;;;;4865457;29;20455;-88
2023/11/13 08:33:52;;;;;;;0.10;0.10;;;;;;;;;;4864629;29;20056;-88
2023/11/13 08:36:21;;;;;;;0.20;0.20;;;;;;;;;;4880369;29;20068;-88
2023/11/13 08:38:47;;;;;;;0.20;0.20;;;;;;;;;;4864976;29;20445;-87
2023/11/13 08:41:13;;;;;;;0.17;0.17;;;;;;;;;;4865069;29;20041;-88
2023/11/13 08:43:40;;;;;;;0.10;0.10;;;;;;;;;;4864920;29;20143;-88
2023/11/13 08:46:06;;;;;;;0.13;0.13;;;;;;;;;;4864910;29;20408;-88
2023/11/13 08:48:32;;;;;;;0.20;0.20;;;;;;;;;;4864826;29;20047;-88
2023/11/13 08:51:01;;;;;;;0.47;0.47;;;;;;;;;;4864802;29;20045;-88
2023/11/13 08:53:28;;;;;;;0.43;0.43;;;;;;;;;;4865074;29;20044;-87
2023/11/13 08:55:56;;;;;;;0.10;0.10;;;;;;;;;;4865186;29;20048;-87
2023/11/13 08:58:22;;;;;;;0.20;0.20;;;;;;;;;;4865192;29;20048;-88
2023/11/13 09:00:48;;;;;;;0.10;0.10;;;;;;;;;;4865067;29;20184;-88
2023/11/13 09:03:17;;;;;;;0.20;0.20;;;;;;;;;;4867907;29;20127;-88
2023/11/13 09:05:46;;;;;;;0.10;0.10;;;;;;;;;;4869114;29;20123;-88
2023/11/13 09:08:12;;;;;;;0.10;0.10;;;;;;;;;;4868865;29;20040;-88
2023/11/13 09:10:44;;;;;;;0.10;0.10;;;;;;;;;;4868742;29;20045;-88
2023/11/13 09:13:10;;;;;;;0.20;0.20;;;;;;;;;;4869056;29;20071;-88
2023/11/13 09:15:39;;;;;;;0.10;0.10;;;;;;;;;;4868572;29;20044;-88
2023/11/13 09:18:05;;;;;;;0.10;0.10;;;;;;;;;;4868073;29;20468;-88
2023/11/13 09:20:32;;;;;;;0.10;0.10;;;;;;;;;;4868539;29;20127;-88
2023/11/13 09:22:58;;;;;;;0.10;0.10;;;;;;;;;;4868420;29;20044;-88
2023/11/13 09:25:26;;;;;;;0.10;0.10;;;;;;;;;;4868659;29;20556;-88
2023/11/13 09:27:55;;;;;;;0.20;0.20;;;;;;;;;;4868436;29;20127;-88
2023/11/13 09:30:21;;;;;;;0.10;0.10;;;;;;;;;;4868204;29;20131;-88
2023/11/13 09:32:50;;;;;;;0.20;0.20;;;;;;;;;;4868355;29;20143;-88
2023/11/13 09:35:26;;;;;;;0.30;0.30;;;;;;;;;;4868259;29;20080;-87
2023/11/13 09:37:56;;;;;;;0.30;0.30;;;;;;;;;;4869947;29;20063;-92
2023/11/13 09:40:25;;;;;;;0.10;0.10;;;;;;;;;;4866306;29;20084;-87
2023/11/13 09:42:52;;;;;;;0.20;0.20;;;;;;;;;;4867608;29;20047;-88
2023/11/13 09:45:19;;;;;;;0.30;0.30;;;;;;;;;;4867785;29;20096;-88
2023/11/13 09:47:45;;;;;;;0.10;0.10;;;;;;;;;;4883223;29;20532;-89
2023/11/13 09:50:15;;;;;;;0.10;0.10;;;;;;;;;;4867754;29;20319;-89
2023/11/13 09:52:49;;;;;;;0.10;0.10;;;;;;;;;;4868427;29;20049;-89
2023/11/13 09:55:18;;;;;;;0.20;0.20;;;;;;;;;;4867805;29;20045;-89
2023/11/13 09:57:45;;;;;;;0.20;0.20;;;;;;;;;;4868265;29;20044;-89
2023/11/13 10:00:16;;;;;;;0.10;0.10;;;;;;;;;;4851231;29;20054;-89
2023/11/13 10:02:44;;;;;;;0.20;0.20;;;;;;;;;;4867742;29;20124;-89
2023/11/13 10:05:12;;;;;;;0.10;0.10;;;;;;;;;;4883224;29;20567;-88
2023/11/13 10:07:38;;;;;;;0.38;0.20;;;;;;;;;;4867823;29;20037;-88
2023/11/13 10:10:06;;;;;;;0.10;0.10;;;;;;;;;;4867299;29;20476;-88
2023/11/13 10:12:32;;;;;;;0.10;0.10;;;;;;;;;;4867190;29;20039;-89
2023/11/13 10:15:13;;;;;;;0.10;0.10;;;;;;;;;;4867434;29;20419;-89
2023/11/13 10:17:42;;;;;;;0.10;0.10;;;;;;;;;;4853680;29;20373;-89
2023/11/13 10:20:09;;;;;;;0.20;0.20;;;;;;;;;;4886386;29;20052;-90
2023/11/13 10:22:36;;;;;;;0.65;0.30;;;;;;;;;;4867946;29;20076;-89
2023/11/13 10:25:02;;;;;;;0.10;0.10;;;;;;;;;;4867048;29;20063;-89
2023/11/13 10:27:29;;;;;;;0.20;0.20;;;;;;;;;;4867867;29;20083;-90
2023/11/13 10:30:05;;;;;;;0.20;0.20;;;;;;;;;;4852485;29;20049;-90
2023/11/13 10:32:32;;;;;;;0.20;0.20;;;;;;;;;;4852398;29;20044;-89
2023/11/13 10:34:57;;;;;;;0.70;0.40;;;;;;;;;;4867271;29;20060;-91
2023/11/13 10:37:24;;;;;;;0.20;0.20;;;;;;;;;;4852111;29;20047;-90
2023/11/13 10:39:51;;;;;;;0.20;0.20;;;;;;;;;;4851920;29;20107;-90
2023/11/13 10:42:25;;;;;;;0.10;0.10;;;;;;;;;;4866278;29;20108;-90
2023/11/13 10:44:51;;;;;;;0.20;0.20;;;;;;;;;;4852434;29;20092;-89
2023/11/13 10:47:20;;;;;;;0.20;0.20;;;;;;;;;;4877323;29;20089;-89
2023/11/13 10:49:53;;;;;;;0.17;0.17;;;;;;;;;;4883771;29;20044;-89
2023/11/13 10:52:21;;;;;;;0.20;0.20;;;;;;;;;;4867070;29;20048;-89
2023/11/13 10:54:48;;;;;;;0.13;0.13;;;;;;;;;;4851818;29;20040;-89
2023/11/13 10:57:15;;;;;;;0.30;0.30;;;;;;;;;;4848177;29;20128;-91
2023/11/13 10:59:41;;;;;;;0.10;0.10;;;;;;;;;;4866046;29;20084;-89
2023/11/13 11:02:13;;;;;;;0.10;0.10;;;;;;;;;;4878841;29;20068;-93
2023/11/13 11:04:42;;;;;;;;;;;;;;;;;;4850204;29;20029;-88
2023/11/13 11:07:09;;;;;;;0.10;0.10;;;;;;;;;;4881786;29;20397;-90
2023/11/13 11:09:36;;;;;;;0.20;0.20;;;;;;;;;;4881542;29;20072;-90
2023/11/13 11:12:03;;;;;;;0.10;0.10;;;;;;;;;;4866360;29;20128;-90
2023/11/13 11:15:11;;;;;;;0.10;0.10;;;;;;;;;;4851399;29;20249;-88
2023/11/13 11:17:39;;;;;;;0.20;0.20;;;;;;;;;;4882003;29;20442;-90
2023/11/13 11:20:08;;;;;;;0.10;0.10;;;;;;;;;;4866825;29;20473;-88
2023/11/13 11:22:34;;;;;;;0.20;0.20;;;;;;;;;;4850454;29;20092;-88
2023/11/13 11:25:13;;;;;;;0.10;0.10;;;;;;;;;;4875716;29;20041;-89
2023/11/13 11:27:43;;;;;;;0.47;0.30;;;;;;;;;;4865707;29;20037;-88
2023/11/13 11:30:18;;;;;;;0.10;0.10;;;;;;;;;;4866122;29;20043;-89
2023/11/13 11:32:53;;;;;;;0.10;0.10;;;;;;;;;;4881644;29;20036;-88
2023/11/13 11:35:20;;;;;;;0.10;0.10;;;;;;;;;;4866243;29;20083;-88
2023/11/13 11:38:04;;;;;;;0.10;0.10;;;;;;;;;;4850454;29;20048;-89
2023/11/13 11:40:31;;;;;;;0.10;0.10;;;;;;;;;;4881527;29;20085;-88
2023/11/13 11:42:59;;;;;;;0.10;0.10;;;;;;;;;;4867912;29;20040;-89
2023/11/13 11:45:27;;;;;;;0.20;0.20;;;;;;;;;;4881725;29;20480;-90
2023/11/13 11:47:53;;;;;;;0.10;0.10;;;;;;;;;;4881532;29;20080;-90
2023/11/13 11:50:19;;;;;;;0.10;0.10;;;;;;;;;;4881739;29;20392;-89
2023/11/13 11:52:51;;;;;;;0.10;0.10;;;;;;;;;;4865753;29;20044;-90
2023/11/13 11:55:19;;;;;;;0.10;0.10;;;;;;;;;;4865939;29;20042;-89
2023/11/13 11:57:48;;;;;;;0.10;0.10;;;;;;;;;;4865988;29;20420;-90
2023/11/13 12:00:19;;;;;;;0.10;0.10;;;;;;;;;;4865670;29;20116;-91
2023/11/13 12:02:45;;;;;;;0.10;0.10;;;;;;;;;;4865900;29;20047;-91
2023/11/13 12:05:12;;;;;;;0.30;0.30;;;;;;;;;;4881935;29;20479;-90
2023/11/13 12:07:38;;;;;;;0.30;0.30;;;;;;;;;;4881589;29;20131;-90
2023/11/13 12:10:08;;;;;;;0.10;0.10;;;;;;;;;;4866178;29;20044;-91
2023/11/13 12:12:37;;;;;;;0.20;0.20;;;;;;;;;;4866151;29;20040;-91
2023/11/13 12:15:07;;;;;;;0.40;0.30;;;;;;;;;;4867500;29;20071;-91
2023/11/13 12:17:34;;;;;;;0.10;0.10;;;;;;;;;;4865922;29;20069;-91
2023/11/13 12:20:01;;;;;;;0.28;0.20;;;;;;;;;;4881339;29;20138;-91
2023/11/13 12:22:28;;;;;;;0.20;0.20;;;;;;;;;;4881617;29;20396;-91
2023/11/13 12:24:54;;;;;;;0.10;0.10;;;;;;;;;;4866479;29;20129;-91
2023/11/13 12:27:21;;;;;;;0.40;0.40;;;;;;;;;;4850833;29;20051;-91
2023/11/13 12:29:58;;;;;;;0.20;0.20;;;;;;;;;;4881220;29;20102;-91
2023/11/13 12:32:25;;;;;;;0.28;0.28;;;;;;;;;;4851383;29;20045;-92
2023/11/13 12:34:51;;;;;;;0.10;0.10;;;;;;;;;;4850504;29;20060;-92
2023/11/13 12:37:17;;;;;;;0.25;0.25;;;;;;;;;;4849240;29;20048;-91
2023/11/13 12:39:46;;;;;;;0.10;0.10;;;;;;;;;;4847157;29;20553;-92
2023/11/13 12:42:12;;;;;;;0.10;0.10;;;;;;;;;;4847479;29;20037;-90
2023/11/13 12:44:38;;;;;;;0.10;0.10;;;;;;;;;;4846756;29;20112;-89
2023/11/13 12:47:05;;;;;;;0.25;0.25;;;;;;;;;;4843087;29;20137;-90
2023/11/13 12:49:31;;;;;;;0.20;0.20;;;;;;;;;;4846708;29;21415;-89
2023/11/13 12:51:57;;;;;;;0.20;0.20;;;;;;;;;;4846697;29;20100;-91
2023/11/13 12:54:23;;;;;;;2.03;1.33;;;;;;;;;;4845314;29;20041;-91
2023/11/13 12:56:50;;;;;;;0.30;0.30;;;;;;;;;;4847059;29;20113;-93
2023/11/13 12:59:16;;;;;;;0.17;0.17;;;;;;;;;;4846910;29;20049;-93
2023/11/13 13:01:45;;;;;;;0.10;0.10;;;;;;;;;;4847658;29;20049;-90
2023/11/13 13:04:11;;;;;;;0.10;0.10;;;;;;;;;;4835460;29;20037;-89
2023/11/13 13:06:38;;;;;;;0.10;0.10;;;;;;;;;;4856231;29;20041;-89
2023/11/13 13:09:05;;;;;;;0.38;0.20;;;;;;;;;;4865419;29;20264;-90
2023/11/13 13:11:33;;;;;;;0.20;0.20;;;;;;;;;;4846744;29;20078;-90
2023/11/13 13:14:01;;;;;;;0.20;0.20;;;;;;;;;;4848123;29;20080;-89
2023/11/13 13:16:27;;;;;;;0.10;0.10;;;;;;;;;;4860939;29;20404;-89
2023/11/13 13:18:53;;;;;;;0.10;0.10;;;;;;;;;;4884015;29;20039;-89
2023/11/13 13:21:22;;;;;;;0.10;0.10;;;;;;;;;;4869043;29;20037;-90
2023/11/13 13:23:49;;;;;;;0.10;0.10;;;;;;;;;;4847478;29;20048;-91
2023/11/13 13:26:15;;;;;;;0.10;0.10;;;;;;;;;;4846934;29;20083;-91
2023/11/13 13:28:41;;;;;;;0.15;0.15;;;;;;;;;;4862505;29;20052;-95
2023/11/13 13:31:08;;;;;;;0.20;0.20;;;;;;;;;;4847331;29;20048;-91
2023/11/13 13:33:35;;;;;;;0.20;0.20;;;;;;;;;;4849814;29;20053;-91
2023/11/13 13:36:04;;;;;;;1.00;0.30;;;;;;;;;;4861765;29;20053;-92
2023/11/13 13:38:30;;;;;;;0.10;0.10;;;;;;;;;;4847607;29;20084;-92
2023/11/13 13:40:56;;;;;;;0.10;0.10;;;;;;;;;;4846581;29;20048;-92
2023/11/13 13:43:22;;;;;;;0.15;0.15;;;;;;;;;;4862228;29;20033;-92
2023/11/13 13:45:50;;;;;;;0.20;0.20;;;;;;;;;;4861779;29;20132;-91
2023/11/13 13:48:16;;;;;;;0.10;0.10;;;;;;;;;;4894331;29;20053;-91
2023/11/13 13:50:42;;;;;;;0.30;0.30;;;;;;;;;;4864374;29;20047;-92
2023/11/13 13:53:08;;;;;;;0.13;0.13;;;;;;;;;;4880072;29;20089;-91
2023/11/13 13:55:34;;;;;;;0.10;0.10;;;;;;;;;;4865101;29;20045;-90
2023/11/13 13:58:01;;;;;;;0.20;0.20;;;;;;;;;;4849938;29;20255;-91
2023/11/13 14:00:32;;;;;;;0.10;0.10;;;;;;;;;;4850096;29;20037;-91
2023/11/13 14:03:07;;;;;;;0.10;0.10;;;;;;;;;;4850741;29;20128;-93
2023/11/13 14:08:14;;;;;;;0.10;0.10;;;;;;;;;;5904040;23;21223;-90
2023/11/13 14:10:48;;;;;;;0.10;0.10;;;;;;;;;;4876824;29;20063;-94
2023/11/13 14:13:14;;;;;;;0.35;0.35;;;;;;;;;;4879322;29;20469;-93
2023/11/13 14:15:43;;;;;;;0.10;0.10;;;;;;;;;;4865367;29;20131;-95
2023/11/13 14:18:11;;;;;;;0.10;0.10;;;;;;;;;;4850244;29;20041;-92
2023/11/13 14:20:51;;;;;;;0.20;0.20;;;;;;;;;;4852812;29;20114;-95
2023/11/13 14:23:40;;;;;;;;;;;;;;;;;;;;;
2023/11/13 14:34:08;;;;;;;0.10;0.10;;;;;;;;;;5511292;23;20056;-95
2023/11/13 14:36:34;;;;;;;0.15;0.15;;;;;;;;;;4853615;29;20507;-95
2023/11/13 14:39:00;;;;;;;0.20;0.20;;;;;;;;;;4852395;29;20055;-94
2023/11/13 14:41:26;;;;;;;0.10;0.10;;;;;;;;;;4852550;29;20553;-94
2023/11/13 14:43:52;;;;;;;0.10;0.10;;;;;;;;;;4852897;29;20045;-94
2023/11/13 14:46:18;;;;;;;0.20;0.20;;;;;;;;;;4852257;29;20044;-95
2023/11/13 14:48:48;;;;;;;0.10;0.10;;;;;;;;;;4852741;29;20048;-95
2023/11/13 14:51:24;;;;;;;0.20;0.20;;;;;;;;;;4852992;29;20373;-96
2023/11/13 14:53:52;;;;;;;0.20;0.20;;;;;;;;;;4853615;29;20053;-90
2023/11/13 14:56:18;;;;;;;0.10;0.10;;;;;;;;;;4852350;29;20131;-93